Time,TemperatureF,DewpointF,PressureIn,WindDirection,WindDirectionDegrees,WindSpeedMPH,WindSpeedGustMPH,Humidity,HourlyPrecipIn,Conditions,Clouds,dailyrainin,SolarRadiationWatts/m^2,SoftwareType,DateUTC
2013-12-02 00:01:00,29.0,19.0,-100.00,SE,133,4.0,11.0,65,0.00,,,0.00,0.000000,,2013-12-02 07:01:00,
2013-12-02 00:42:00,28.0,19.0,-100.00,SSE,151,5.0,13.0,68,0.00,,,0.00,0.000000,,2013-12-02 07:42:00,
2013-12-02 00:52:00,28.0,19.0,-100.00,SSE,151,5.0,13.0,68,0.00,,,0.00,0.000000,,2013-12-02 07:52:00,
2013-12-02 01:01:00,28.0,19.0,-100.00,SSE,151,5.0,13.0,68,0.00,,,0.00,0.000000,,2013-12-02 08:01:00,
2013-12-02 01:42:00,27.0,18.0,-100.00,East,84,8.0,18.0,69,0.00,,,0.00,0.000000,,2013-12-02 08:42:00,
2013-12-02 01:52:00,27.0,18.0,-100.00,East,84,8.0,18.0,69,0.00,,,0.00,0.000000,,2013-12-02 08:52:00,
2013-12-02 02:02:00,27.0,18.0,-100.00,East,84,8.0,18.0,69,0.00,,,0.00,0.000000,,2013-12-02 09:02:00,
2013-12-02 02:43:00,28.0,20.0,-100.00,ENE,66,10.0,18.0,70,0.00,,,0.00,0.000000,,2013-12-02 09:43:00,
2013-12-02 02:54:00,28.0,20.0,-100.00,ENE,66,10.0,18.0,70,0.00,,,0.00,0.000000,,2013-12-02 09:54:00,
2013-12-02 03:03:00,28.0,20.0,-100.00,ENE,66,10.0,18.0,70,0.00,,,0.00,0.000000,,2013-12-02 10:03:00,
2013-12-02 03:42:00,27.0,18.0,-100.00,North,353,3.0,18.0,69,0.00,,,0.00,0.000000,,2013-12-02 10:42:00,
2013-12-02 03:52:00,27.0,18.0,-100.00,North,353,3.0,18.0,69,0.00,,,0.00,0.000000,,2013-12-02 10:52:00,
2013-12-02 04:02:00,27.0,18.0,-100.00,North,353,3.0,18.0,69,0.00,,,0.00,0.000000,,2013-12-02 11:02:00,
2013-12-02 04:42:00,27.0,18.0,-100.00,South,172,4.0,11.0,69,0.00,,,0.00,0.000000,,2013-12-02 11:42:00,
2013-12-02 04:53:00,27.0,18.0,-100.00,South,172,4.0,11.0,69,0.00,,,0.00,0.000000,,2013-12-02 11:53:00,
2013-12-02 05:02:00,27.0,18.0,-100.00,South,172,4.0,11.0,69,0.00,,,0.00,0.000000,,2013-12-02 12:02:00,
2013-12-02 05:42:00,28.0,18.0,-100.00,SSE,168,4.0,9.0,67,0.00,,,0.00,0.000000,,2013-12-02 12:42:00,
2013-12-02 05:52:00,28.0,18.0,-100.00,SSE,168,4.0,9.0,67,0.00,,,0.00,0.000000,,2013-12-02 12:52:00,
2013-12-02 06:01:00,28.0,18.0,-100.00,SSE,168,4.0,9.0,67,0.00,,,0.00,0.000000,,2013-12-02 13:01:00,
2013-12-02 06:42:00,29.0,19.0,-100.00,South,180,5.0,10.0,66,0.00,,,0.00,0.000000,,2013-12-02 13:42:00,
2013-12-02 06:52:00,29.0,19.0,-100.00,South,180,5.0,10.0,66,0.00,,,0.00,0.000000,,2013-12-02 13:52:00,
2013-12-02 07:02:00,29.0,19.0,-100.00,South,180,5.0,10.0,66,0.00,,,0.00,0.000000,,2013-12-02 14:02:00,
2013-12-02 07:42:00,30.0,17.0,-100.00,South,180,6.0,13.0,59,0.00,,,0.00,1.000000,,2013-12-02 14:42:00,
2013-12-02 07:52:00,30.0,17.0,-100.00,South,180,6.0,13.0,59,0.00,,,0.00,1.000000,,2013-12-02 14:52:00,
2013-12-02 08:02:00,30.0,17.0,-100.00,South,180,6.0,13.0,59,0.00,,,0.00,1.000000,,2013-12-02 15:02:00,
2013-12-02 08:43:00,32.0,16.0,-100.00,West,267,6.0,18.0,51,0.00,,,0.00,45.000000,,2013-12-02 15:43:00,
2013-12-02 08:54:00,32.0,16.0,-100.00,West,267,6.0,18.0,51,0.00,,,0.00,45.000000,,2013-12-02 15:54:00,
2013-12-02 09:03:00,32.0,16.0,-100.00,West,267,6.0,18.0,51,0.00,,,0.00,45.000000,,2013-12-02 16:03:00,
2013-12-02 09:43:00,35.0,14.0,-100.00,West,266,4.0,16.0,42,0.00,,,0.00,119.000000,,2013-12-02 16:43:00,
2013-12-02 09:53:00,35.0,14.0,-100.00,West,266,4.0,16.0,42,0.00,,,0.00,119.000000,,2013-12-02 16:53:00,
2013-12-02 10:02:00,35.0,14.0,-100.00,West,266,4.0,16.0,42,0.00,,,0.00,119.000000,,2013-12-02 17:02:00,
2013-12-02 10:42:00,37.0,13.0,-100.00,SW,234,8.0,23.0,36,0.00,,,0.00,176.000000,,2013-12-02 17:42:00,
2013-12-02 10:53:00,37.0,13.0,-100.00,SW,234,8.0,23.0,36,0.00,,,0.00,176.000000,,2013-12-02 17:53:00,
2013-12-02 11:01:00,37.0,13.0,-100.00,SW,234,8.0,23.0,36,0.00,,,0.00,176.000000,,2013-12-02 18:01:00,
2013-12-02 11:42:00,41.0,13.0,-100.00,WNW,295,9.0,22.0,31,0.00,,,0.00,487.000000,,2013-12-02 18:42:00,
2013-12-02 11:53:00,41.0,13.0,-100.00,WNW,295,9.0,22.0,31,0.00,,,0.00,487.000000,,2013-12-02 18:53:00,
2013-12-02 12:02:00,41.0,13.0,-100.00,WNW,295,9.0,22.0,31,0.00,,,0.00,487.000000,,2013-12-02 19:02:00,
2013-12-02 12:42:00,40.0,13.0,-100.00,West,272,11.0,25.0,33,0.00,,,0.00,553.000000,,2013-12-02 19:42:00,
2013-12-02 12:52:00,40.0,13.0,-100.00,West,272,11.0,25.0,33,0.00,,,0.00,553.000000,,2013-12-02 19:52:00,
2013-12-02 13:02:00,40.0,13.0,-100.00,West,272,11.0,25.0,33,0.00,,,0.00,553.000000,,2013-12-02 20:02:00,
2013-12-02 13:42:00,38.0,13.0,-100.00,NW,307,9.0,31.0,36,0.00,,,0.00,377.000000,,2013-12-02 20:42:00,
2013-12-02 13:52:00,38.0,13.0,-100.00,NW,307,9.0,31.0,36,0.00,,,0.00,377.000000,,2013-12-02 20:52:00,
2013-12-02 14:02:00,38.0,13.0,-100.00,NW,307,9.0,31.0,36,0.00,,,0.00,377.000000,,2013-12-02 21:02:00,
2013-12-02 14:43:00,38.0,15.0,-100.00,WNW,288,6.0,23.0,39,0.00,,,0.00,303.000000,,2013-12-02 21:43:00,
2013-12-02 14:53:00,38.0,15.0,-100.00,WNW,288,6.0,23.0,39,0.00,,,0.00,303.000000,,2013-12-02 21:53:00,
2013-12-02 15:03:00,38.0,15.0,-100.00,WNW,288,6.0,23.0,39,0.00,,,0.00,303.000000,,2013-12-02 22:03:00,
2013-12-02 15:43:00,34.0,17.0,-100.00,West,272,6.0,20.0,49,0.00,,,0.00,213.000000,,2013-12-02 22:43:00,
2013-12-02 15:53:00,34.0,17.0,-100.00,West,272,6.0,20.0,49,0.00,,,0.00,213.000000,,2013-12-02 22:53:00,
2013-12-02 16:02:00,34.0,17.0,-100.00,West,272,6.0,20.0,49,0.00,,,0.00,213.000000,,2013-12-02 23:02:00,
2013-12-02 16:42:00,32.0,18.0,-100.00,North,5,3.0,14.0,56,0.00,,,0.00,90.000000,,2013-12-02 23:42:00,
2013-12-02 16:53:00,32.0,18.0,-100.00,North,5,3.0,14.0,56,0.00,,,0.00,90.000000,,2013-12-02 23:53:00,
2013-12-02 17:02:00,32.0,18.0,-100.00,North,5,3.0,14.0,56,0.00,,,0.00,90.000000,,2013-12-03 00:02:00,
2013-12-02 17:42:00,30.0,19.0,-100.00,North,4,2.0,9.0,63,0.00,,,0.00,8.000000,,2013-12-03 00:42:00,
2013-12-02 17:52:00,30.0,19.0,-100.00,North,4,2.0,9.0,63,0.00,,,0.00,8.000000,,2013-12-03 00:52:00,
2013-12-02 18:01:00,30.0,19.0,-100.00,North,4,2.0,9.0,63,0.00,,,0.00,8.000000,,2013-12-03 01:01:00,
2013-12-02 18:42:00,29.0,19.0,-100.00,North,357,3.0,8.0,66,0.00,,,0.00,0.000000,,2013-12-03 01:42:00,
2013-12-02 18:52:00,29.0,19.0,-100.00,North,357,3.0,8.0,66,0.00,,,0.00,0.000000,,2013-12-03 01:52:00,
2013-12-02 19:02:00,29.0,19.0,-100.00,North,357,3.0,8.0,66,0.00,,,0.00,0.000000,,2013-12-03 02:02:00,
2013-12-02 19:42:00,28.0,21.0,-100.00,North,11,4.0,9.0,76,0.00,,,0.00,0.000000,,2013-12-03 02:42:00,
2013-12-02 19:52:00,28.0,21.0,-100.00,North,11,4.0,9.0,76,0.00,,,0.00,0.000000,,2013-12-03 02:52:00,
2013-12-02 20:02:00,28.0,21.0,-100.00,North,11,4.0,9.0,76,0.00,,,0.00,0.000000,,2013-12-03 03:02:00,
2013-12-02 20:43:00,26.0,23.0,-100.00,East,85,2.0,7.0,87,0.00,,,0.00,0.000000,,2013-12-03 03:43:00,
2013-12-02 20:54:00,26.0,23.0,-100.00,East,85,2.0,7.0,87,0.00,,,0.00,0.000000,,2013-12-03 03:54:00,
2013-12-02 21:03:00,26.0,23.0,-100.00,East,85,2.0,7.0,87,0.00,,,0.00,0.000000,,2013-12-03 04:03:00,
2013-12-02 21:43:00,26.0,23.0,-100.00,SW,224,2.0,4.0,88,0.00,,,0.00,0.000000,,2013-12-03 04:43:00,
2013-12-02 21:52:00,26.0,23.0,-100.00,SW,224,2.0,4.0,88,0.00,,,0.00,0.000000,,2013-12-03 04:52:00,
2013-12-02 22:02:00,26.0,23.0,-100.00,SW,224,2.0,4.0,88,0.00,,,0.00,0.000000,,2013-12-03 05:02:00,
2013-12-02 22:43:00,25.0,22.0,-100.00,NW,321,0.0,4.0,88,0.00,,,0.00,0.000000,,2013-12-03 05:43:00,
2013-12-02 22:53:00,25.0,22.0,-100.00,NW,321,0.0,4.0,88,0.00,,,0.00,0.000000,,2013-12-03 05:53:00,
2013-12-02 23:02:00,25.0,22.0,-100.00,NW,321,0.0,4.0,88,0.00,,,0.00,0.000000,,2013-12-03 06:02:00,
2013-12-02 23:42:00,26.0,22.0,-100.00,SW,233,1.0,4.0,85,0.00,,,0.00,0.000000,,2013-12-03 06:42:00,
2013-12-02 23:53:00,26.0,22.0,-100.00,SW,233,1.0,4.0,85,0.00,,,0.00,0.000000,,2013-12-03 06:53:00,